Time;durP1;ratioP1;P1;durP2;ratioP2;P2;SDS_P1;SDS_P2;PMS_P1;PMS_P2;Temp;Humidity;BMP_temperature;BMP_pressure;BME280_temperature;BME280_humidity;BME280_pressure;Samples;Min_cycle;Max_cycle;Signal;HPM_P1;HPM_P2
2021/04/26 00:01:05;;;;;;;;;;;3.00;75.80;;;;;;4952267;28;19930;-72
2021/04/26 00:03:31;;;;;;;;;;;3.00;75.60;;;;;;4967861;28;20034;-72
2021/04/26 00:05:57;;;;;;;;;;;2.90;76.70;;;;;;4968197;28;19933;-72
2021/04/26 00:08:25;;;;;;;;;;;3.00;77.30;;;;;;4952216;28;20025;-72
2021/04/26 00:10:51;;;;;;;;;;;3.00;77.30;;;;;;4954834;28;20433;-72
2021/04/26 00:13:17;;;;;;;;;;;3.00;77.60;;;;;;4953312;29;19932;-72
2021/04/26 00:15:43;;;;;;;;;;;2.90;77.90;;;;;;4951995;28;20343;-72
2021/04/26 00:18:09;;;;;;;;;;;2.90;78.40;;;;;;4968263;28;20013;-72
2021/04/26 00:20:35;;;;;;;;;;;2.80;78.30;;;;;;4951887;29;20597;-72
2021/04/26 00:23:02;;;;;;;;;;;2.70;78.50;;;;;;4952193;28;20029;-72
2021/04/26 00:25:29;;;;;;;;;;;2.60;78.90;;;;;;4967714;28;19965;-72
2021/04/26 00:27:55;;;;;;;;;;;2.70;79.80;;;;;;4951622;28;19930;-72
2021/04/26 00:30:25;;;;;;;;;;;2.70;80.00;;;;;;4951658;29;19926;-72
2021/04/26 00:32:52;;;;;;;;;;;2.60;80.40;;;;;;4952900;28;20105;-72
2021/04/26 00:35:18;;;;;;;;;;;2.60;80.30;;;;;;4967629;28;19926;-72
2021/04/26 00:37:45;;;;;;;;;;;2.60;80.30;;;;;;4951411;28;20053;-72
2021/04/26 00:40:11;;;;;;;;;;;2.60;80.20;;;;;;4967798;28;19980;-72
2021/04/26 00:42:38;;;;;;;;;;;2.60;80.30;;;;;;4970373;28;20005;-72
2021/04/26 00:45:08;;;;;;;;;;;2.60;80.60;;;;;;4966431;28;19926;-72
2021/04/26 00:47:38;;;;;;;;;;;2.60;80.30;;;;;;4951147;28;20045;-72
2021/04/26 00:50:05;;;;;;;;;;;2.60;80.10;;;;;;4951340;29;19933;-72
2021/04/26 00:52:32;;;;;;;;;;;2.60;80.20;;;;;;4950955;29;19931;-72
2021/04/26 00:54:58;;;;;;;;;;;2.50;80.40;;;;;;4952494;29;19957;-72
2021/04/26 00:57:24;;;;;;;;;;;2.60;80.40;;;;;;4966938;28;19977;-72
2021/04/26 00:59:50;;;;;;;;;;;2.60;80.60;;;;;;4953701;28;19930;-72
2021/04/26 01:02:16;;;;;;;;;;;2.50;80.50;;;;;;5414220;23;19985;-76
2021/04/26 01:04:42;;;;;;;;;;;2.50;80.90;;;;;;4950811;28;20022;-77
2021/04/26 01:07:10;;;;;;;;;;;2.60;80.90;;;;;;4967102;28;20434;-76
2021/04/26 01:09:38;;;;;;;;;;;2.60;80.80;;;;;;4966862;28;19922;-77
2021/04/26 01:12:11;;;;;;;;;;;2.50;81.20;;;;;;4967101;28;20009;-76
2021/04/26 01:14:37;;;;;;;;;;;2.50;81.60;;;;;;4952502;29;19926;-77
2021/04/26 01:17:07;;;;;;;;;;;2.50;81.80;;;;;;4967069;28;20065;-76
2021/04/26 01:19:39;;;;;;;;;;;2.50;81.80;;;;;;4967153;28;19922;-77
2021/04/26 01:22:20;;;;;;;;;;;2.40;81.90;;;;;;4952288;29;20009;-75
2021/04/26 01:24:59;;;;;;;;;;;2.40;81.90;;;;;;4967018;28;20764;-75
2021/04/26 01:27:37;;;;;;;;;;;2.30;81.80;;;;;;4966742;28;20360;-77
2021/04/26 01:30:05;;;;;;;;;;;2.30;81.30;;;;;;4967130;28;19930;-75
2021/04/26 01:32:56;;;;;;;;;;;2.30;81.70;;;;;;4966802;28;20375;-77
2021/04/26 01:35:24;;;;;;;;;;;2.20;82.00;;;;;;4966563;28;19937;-75
2021/04/26 01:37:54;;;;;;;;;;;2.20;82.30;;;;;;4966496;28;20347;-76
2021/04/26 01:40:20;;;;;;;;;;;2.20;82.60;;;;;;4967716;28;20374;-76
2021/04/26 01:42:47;;;;;;;;;;;2.20;82.60;;;;;;4968208;28;20044;-76
2021/04/26 01:45:16;;;;;;;;;;;2.20;82.40;;;;;;4952326;28;19933;-76
2021/04/26 01:47:44;;;;;;;;;;;2.10;82.20;;;;;;4966451;28;20414;-76
2021/04/26 01:50:11;;;;;;;;;;;2.10;82.10;;;;;;4966376;28;19922;-77
2021/04/26 01:52:37;;;;;;;;;;;2.10;82.00;;;;;;4950378;29;19957;-76
2021/04/26 01:55:08;;;;;;;;;;;2.10;81.60;;;;;;4966867;28;20354;-77
2021/04/26 01:57:35;;;;;;;;;;;2.10;81.70;;;;;;4966307;28;19927;-76
2021/04/26 02:00:08;;;;;;;;;;;2.20;81.80;;;;;;4966518;28;19933;-76
2021/04/26 02:02:49;;;;;;;;;;;2.20;81.90;;;;;;4950998;29;20012;-77
2021/04/26 02:05:16;;;;;;;;;;;2.20;82.00;;;;;;4959543;28;19926;-76
2021/04/26 02:07:50;;;;;;;;;;;2.10;82.50;;;;;;4965887;28;19922;-76
2021/04/26 02:10:28;;;;;;;;;;;2.10;82.60;;;;;;4971598;28;20028;-76
2021/04/26 02:12:59;;;;;;;;;;;2.00;82.70;;;;;;4949868;28;20364;-76
2021/04/26 02:15:27;;;;;;;;;;;2.10;82.80;;;;;;4951297;29;19930;-76
2021/04/26 02:17:54;;;;;;;;;;;2.00;83.00;;;;;;4949889;28;20438;-76
2021/04/26 02:20:20;;;;;;;;;;;2.10;82.70;;;;;;4946846;28;19973;-76
2021/04/26 02:22:47;;;;;;;;;;;2.00;82.30;;;;;;4966007;28;19964;-75
2021/04/26 02:25:13;;;;;;;;;;;2.00;83.00;;;;;;4965971;28;20021;-77
2021/04/26 02:27:39;;;;;;;;;;;2.00;82.30;;;;;;4965588;28;20466;-75
2021/04/26 02:30:07;;;;;;;;;;;1.90;82.50;;;;;;4965861;28;19927;-76
2021/04/26 02:32:40;;;;;;;;;;;1.90;82.30;;;;;;4966252;28;20005;-77
2021/04/26 02:35:43;;;;;;;;;;;1.90;82.40;;;;;;4963397;28;19958;-77
2021/04/26 02:38:31;;;;;;;;;;;1.90;82.40;;;;;;4964323;28;19966;-77
2021/04/26 02:41:02;;;;;;;;;;;1.90;82.40;;;;;;4949442;29;19926;-76
2021/04/26 02:43:30;;;;;;;;;;;1.90;82.30;;;;;;4949517;28;20016;-77
2021/04/26 02:45:57;;;;;;;;;;;1.80;82.50;;;;;;4965633;28;19926;-77
2021/04/26 02:48:24;;;;;;;;;;;1.70;83.20;;;;;;4965366;28;20009;-76
2021/04/26 02:50:56;;;;;;;;;;;1.70;83.30;;;;;;4964944;28;19926;-77
2021/04/26 02:53:24;;;;;;;;;;;1.60;83.30;;;;;;4965247;28;19934;-76
2021/04/26 02:55:52;;;;;;;;;;;1.60;83.70;;;;;;4950610;28;19926;-77
2021/04/26 02:58:22;;;;;;;;;;;1.60;83.90;;;;;;4965124;28;19926;-76
2021/04/26 03:00:50;;;;;;;;;;;1.60;84.00;;;;;;4965464;28;20445;-77
2021/04/26 03:03:46;;;;;;;;;;;1.60;84.40;;;;;;4946916;28;20033;-76
2021/04/26 03:06:14;;;;;;;;;;;1.60;84.40;;;;;;4959183;28;19929;-77
2021/04/26 03:09:16;;;;;;;;;;;1.60;85.40;;;;;;4965938;28;19927;-75
2021/04/26 03:11:43;;;;;;;;;;;1.50;85.00;;;;;;4973182;28;19932;-76
2021/04/26 03:14:11;;;;;;;;;;;1.50;85.40;;;;;;4971859;28;20040;-75
2021/04/26 03:16:38;;;;;;;;;;;1.50;85.50;;;;;;4971817;28;19927;-76
2021/04/26 03:19:05;;;;;;;;;;;1.50;85.90;;;;;;4971749;28;19926;-76
2021/04/26 03:21:32;;;;;;;;;;;1.60;86.10;;;;;;4971692;28;20640;-76
2021/04/26 03:23:58;;;;;;;;;;;1.50;86.40;;;;;;4971402;28;20060;-76
2021/04/26 03:26:24;;;;;;;;;;;1.60;86.40;;;;;;4956575;28;20016;-76
2021/04/26 03:28:51;;;;;;;;;;;1.60;86.50;;;;;;4956872;28;20017;-77
2021/04/26 03:31:17;;;;;;;;;;;1.60;86.50;;;;;;4971304;28;19927;-76
2021/04/26 03:33:52;;;;;;;;;;;1.60;86.80;;;;;;4970456;28;20017;-78
2021/04/26 03:36:20;;;;;;;;;;;1.70;87.00;;;;;;4971349;28;20382;-77
2021/04/26 03:38:49;;;;;;;;;;;1.70;87.10;;;;;;4971429;28;20009;-77
2021/04/26 03:41:18;;;;;;;;;;;1.80;87.40;;;;;;4971044;28;20013;-75
2021/04/26 03:43:44;;;;;;;;;;;1.80;87.60;;;;;;4956805;29;20417;-76
2021/04/26 03:46:12;;;;;;;;;;;1.70;87.40;;;;;;4971545;28;20354;-77
2021/04/26 03:48:48;;;;;;;;;;;1.80;87.80;;;;;;4970349;28;20009;-76
2021/04/26 03:51:40;;;;;;;;;;;1.80;87.60;;;;;;4955388;29;20287;-77
2021/04/26 03:54:42;;;;;;;;;;;1.70;87.80;;;;;;4915785;29;19927;-76
2021/04/26 03:57:08;;;;;;;;;;;1.70;88.30;;;;;;4949041;28;19926;-73
2021/04/26 03:59:34;;;;;;;;;;;1.70;88.40;;;;;;4971310;28;19926;-67
2021/04/26 04:02:01;;;;;;;;;;;1.80;88.60;;;;;;4971289;28;19930;-71
2021/04/26 04:04:31;;;;;;;;;;;1.80;88.50;;;;;;4971086;28;20017;-73
2021/04/26 04:07:17;;;;;;;;;;;1.80;88.50;;;;;;4955225;28;20016;-75
2021/04/26 04:10:06;;;;;;;;;;;1.80;88.80;;;;;;4958073;28;20018;-70
2021/04/26 04:12:55;;;;;;;;;;;1.90;88.90;;;;;;4960572;28;20020;-70
2021/04/26 04:15:21;;;;;;;;;;;1.90;89.00;;;;;;4970773;28;19962;-66
2021/04/26 04:17:47;;;;;;;;;;;2.00;88.90;;;;;;4955412;28;19965;-70
2021/04/26 04:20:14;;;;;;;;;;;2.10;88.70;;;;;;4969083;28;20547;-66
2021/04/26 04:22:44;;;;;;;;;;;2.10;88.60;;;;;;4968210;28;19930;-75
2021/04/26 04:25:11;;;;;;;;;;;2.10;88.30;;;;;;4967053;28;20037;-75
2021/04/26 04:27:38;;;;;;;;;;;2.10;88.50;;;;;;4968010;28;19985;-78
2021/04/26 04:30:09;;;;;;;;;;;2.10;88.90;;;;;;4967307;28;20342;-75
2021/04/26 04:33:09;;;;;;;;;;;2.10;88.90;;;;;;4963116;28;20354;-73
2021/04/26 04:35:53;;;;;;;;;;;2.20;88.90;;;;;;4952786;29;19986;-71
2021/04/26 04:38:19;;;;;;;;;;;2.20;88.80;;;;;;4967675;28;20382;-69
2021/04/26 04:41:04;;;;;;;;;;;2.20;89.00;;;;;;4953353;29;20030;-69
2021/04/26 04:43:31;;;;;;;;;;;2.30;88.50;;;;;;4968009;28;20297;-70
2021/04/26 04:45:58;;;;;;;;;;;2.40;87.90;;;;;;4952908;29;20403;-70
2021/04/26 04:48:33;;;;;;;;;;;2.30;87.80;;;;;;4952664;29;20306;-66
2021/04/26 04:51:01;;;;;;;;;;;2.30;88.00;;;;;;4952808;29;20021;-66
2021/04/26 04:53:26;;;;;;;;;;;2.20;88.30;;;;;;4967314;28;20029;-67
2021/04/26 04:55:53;;;;;;;;;;;2.20;88.70;;;;;;4952843;28;20017;-64
2021/04/26 04:58:25;;;;;;;;;;;2.30;89.40;;;;;;4967553;28;19973;-64
2021/04/26 05:00:52;;;;;;;;;;;2.20;89.50;;;;;;4967416;28;19932;-65
2021/04/26 05:03:40;;;;;;;;;;;2.30;90.00;;;;;;4953991;28;20021;-68
2021/04/26 05:06:25;;;;;;;;;;;2.30;90.10;;;;;;4948080;28;19953;-66
2021/04/26 05:09:09;;;;;;;;;;;2.40;90.40;;;;;;4952036;29;19922;-66
2021/04/26 05:11:54;;;;;;;;;;;2.40;90.40;;;;;;4975024;28;20013;-66
2021/04/26 05:14:42;;;;;;;;;;;2.50;90.40;;;;;;4965467;28;20386;-67
2021/04/26 05:17:08;;;;;;;;;;;2.60;90.00;;;;;;4951788;29;19926;-67
2021/04/26 05:19:34;;;;;;;;;;;2.60;89.80;;;;;;4967398;28;19929;-66
2021/04/26 05:22:01;;;;;;;;;;;2.70;89.50;;;;;;4952258;29;20019;-67
2021/04/26 05:24:27;;;;;;;;;;;2.80;89.20;;;;;;4966805;28;20732;-66
2021/04/26 05:26:53;;;;;;;;;;;2.90;89.00;;;;;;4951425;29;19968;-66
2021/04/26 05:29:19;;;;;;;;;;;3.10;88.90;;;;;;4951661;29;19970;-65
2021/04/26 05:31:46;;;;;;;;;;;3.20;88.50;;;;;;4966187;28;20426;-65
2021/04/26 05:34:12;;;;;;;;;;;3.40;88.30;;;;;;4966605;28;19970;-66
2021/04/26 05:36:41;;;;;;;;;;;3.70;87.60;;;;;;4966620;28;20013;-66
2021/04/26 05:39:07;;;;;;;;;;;4.10;85.80;;;;;;4966753;28;20021;-67
2021/04/26 05:41:35;;;;;;;;;;;4.50;83.90;;;;;;4966652;28;20029;-66
2021/04/26 05:44:03;;;;;;;;;;;5.00;81.30;;;;;;4966542;28;19926;-66
2021/04/26 05:46:36;;;;;;;;;;;5.60;79.60;;;;;;4966658;28;19926;-66
2021/04/26 05:49:02;;;;;;;;;;;6.10;77.70;;;;;;4951676;29;20310;-66
2021/04/26 05:51:29;;;;;;;;;;;6.40;74.80;;;;;;4966131;28;20025;-66
2021/04/26 05:53:55;;;;;;;;;;;6.40;74.40;;;;;;4951218;29;20016;-66
2021/04/26 05:56:21;;;;;;;;;;;6.50;72.80;;;;;;4966429;28;19973;-66
2021/04/26 05:58:47;;;;;;;;;;;6.40;73.00;;;;;;4966135;28;20373;-66
2021/04/26 06:01:13;;;;;;;;;;;6.30;73.60;;;;;;4966284;28;20009;-65
2021/04/26 06:03:39;;;;;;;;;;;6.10;74.30;;;;;;4951055;29;20017;-66
2021/04/26 06:06:05;;;;;;;;;;;6.00;74.00;;;;;;4956993;28;19933;-66
2021/04/26 06:08:31;;;;;;;;;;;5.90;74.50;;;;;;4950904;29;20022;-66
2021/04/26 06:10:57;;;;;;;;;;;5.80;75.00;;;;;;4960630;28;20401;-66
2021/04/26 06:13:22;;;;;;;;;;;5.70;75.70;;;;;;4950825;28;20358;-66
2021/04/26 06:15:48;;;;;;;;;;;5.60;80.50;;;;;;4951384;28;19922;-67
2021/04/26 06:18:15;;;;;;;;;;;5.50;83.70;;;;;;4951036;28;19950;-67
2021/04/26 06:20:42;;;;;;;;;;;5.40;87.80;;;;;;4951379;28;20318;-66
2021/04/26 06:23:09;;;;;;;;;;;5.30;90.00;;;;;;4965600;28;20295;-65
2021/04/26 06:25:36;;;;;;;;;;;5.30;91.70;;;;;;4951147;28;20306;-64
2021/04/26 06:28:03;;;;;;;;;;;5.30;92.20;;;;;;4950878;29;20067;-64
2021/04/26 06:30:29;;;;;;;;;;;5.30;92.80;;;;;;4950862;28;19981;-64
2021/04/26 06:32:55;;;;;;;;;;;5.40;91.70;;;;;;4965781;28;19978;-64
2021/04/26 06:35:21;;;;;;;;;;;5.30;92.70;;;;;;4965589;28;19933;-63
2021/04/26 06:37:47;;;;;;;;;;;5.20;93.10;;;;;;4950627;29;19927;-64
2021/04/26 06:40:13;;;;;;;;;;;5.10;93.00;;;;;;4950607;28;20406;-65
2021/04/26 06:42:39;;;;;;;;;;;5.00;92.60;;;;;;4949931;28;19933;-66
2021/04/26 06:45:05;;;;;;;;;;;5.00;93.00;;;;;;4950873;28;20350;-65
2021/04/26 06:47:31;;;;;;;;;;;5.00;94.40;;;;;;4950321;28;19926;-66
2021/04/26 06:49:57;;;;;;;;;;;5.10;95.00;;;;;;4965549;28;19933;-68
2021/04/26 06:52:23;;;;;;;;;;;5.20;95.30;;;;;;4950394;28;19981;-67
2021/04/26 06:54:49;;;;;;;;;;;5.30;93.50;;;;;;4950645;28;19926;-67
2021/04/26 06:57:15;;;;;;;;;;;5.40;95.00;;;;;;4960179;28;20029;-68
2021/04/26 06:59:42;;;;;;;;;;;5.50;94.90;;;;;;4944307;28;19926;-69
2021/04/26 07:02:07;;;;;;;;;;;5.80;95.90;;;;;;4947678;28;20012;-70
2021/04/26 07:04:34;;;;;;;;;;;6.20;93.00;;;;;;4962271;28;20443;-69
2021/04/26 07:07:00;;;;;;;;;;;6.60;92.40;;;;;;4947757;29;19933;-67
2021/04/26 07:09:26;;;;;;;;;;;6.70;91.20;;;;;;4947393;28;19932;-67
2021/04/26 07:11:52;;;;;;;;;;;6.60;91.10;;;;;;4964756;28;19930;-66
2021/04/26 07:14:18;;;;;;;;;;;6.70;91.40;;;;;;4961335;28;19926;-69
2021/04/26 07:16:43;;;;;;;;;;;6.80;91.30;;;;;;4947814;28;19933;-68
2021/04/26 07:19:09;;;;;;;;;;;7.00;91.60;;;;;;4947493;28;19930;-64
2021/04/26 07:21:35;;;;;;;;;;;7.30;90.70;;;;;;4947774;28;19967;-65
2021/04/26 07:24:01;;;;;;;;;;;7.50;87.40;;;;;;4961114;28;19965;-66
2021/04/26 07:26:27;;;;;;;;;;;8.00;88.50;;;;;;4947775;29;19926;-66
2021/04/26 07:28:53;;;;;;;;;;;8.40;87.40;;;;;;4947083;28;20396;-65
2021/04/26 07:31:19;;;;;;;;;;;8.80;86.50;;;;;;4949034;28;20298;-68
2021/04/26 07:33:45;;;;;;;;;;;8.80;83.70;;;;;;4948159;28;20001;-66
2021/04/26 07:36:12;;;;;;;;;;;8.60;80.50;;;;;;4949646;29;20046;-68
2021/04/26 07:38:38;;;;;;;;;;;8.40;78.90;;;;;;4964015;28;20017;-69
2021/04/26 07:41:03;;;;;;;;;;;8.30;77.50;;;;;;4964869;28;20353;-66
2021/04/26 07:43:29;;;;;;;;;;;7.90;76.40;;;;;;4948623;28;20421;-67
2021/04/26 07:45:55;;;;;;;;;;;7.60;77.70;;;;;;4964672;28;19973;-67
2021/04/26 07:48:21;;;;;;;;;;;7.40;79.90;;;;;;4949632;29;19957;-68
2021/04/26 07:50:47;;;;;;;;;;;7.20;80.70;;;;;;4949719;29;19973;-68
2021/04/26 07:53:13;;;;;;;;;;;7.20;82.90;;;;;;4949556;29;19997;-67
2021/04/26 07:55:39;;;;;;;;;;;7.20;85.40;;;;;;4952631;28;20358;-67
2021/04/26 07:58:05;;;;;;;;;;;7.20;86.60;;;;;;4968220;28;20016;-67
2021/04/26 08:00:31;;;;;;;;;;;7.40;86.60;;;;;;4953338;29;20418;-65
2021/04/26 08:02:57;;;;;;;;;;;7.70;85.00;;;;;;4968186;28;20333;-70
2021/04/26 08:05:23;;;;;;;;;;;8.30;82.20;;;;;;4966727;28;20024;-67
2021/04/26 08:07:49;;;;;;;;;;;8.90;81.00;;;;;;4953204;29;20017;-67
2021/04/26 08:10:16;;;;;;;;;;;9.60;73.90;;;;;;4956464;28;19930;-70
2021/04/26 08:12:42;;;;;;;;;;;10.40;73.00;;;;;;4960316;28;20711;-70
2021/04/26 08:15:09;;;;;;;;;;;10.80;65.30;;;;;;4967886;28;19933;-71
2021/04/26 08:17:35;;;;;;;;;;;10.90;65.10;;;;;;4976927;28;19930;-71
2021/04/26 08:20:02;;;;;;;;;;;10.80;63.80;;;;;;4965790;28;19937;-67
2021/04/26 08:22:28;;;;;;;;;;;10.60;64.20;;;;;;4959946;28;20013;-70
2021/04/26 08:24:54;;;;;;;;;;;10.20;63.40;;;;;;4952351;28;20521;-69
2021/04/26 08:27:20;;;;;;;;;;;10.00;63.70;;;;;;4952800;28;20005;-70
2021/04/26 08:29:46;;;;;;;;;;;9.80;63.60;;;;;;4952623;28;20695;-70
2021/04/26 08:32:12;;;;;;;;;;;9.50;63.90;;;;;;4947173;29;19922;-70
2021/04/26 08:34:38;;;;;;;;;;;9.30;64.10;;;;;;4965220;28;20301;-71
2021/04/26 08:37:04;;;;;;;;;;;8.90;63.80;;;;;;4952814;28;19922;-71
2021/04/26 08:39:30;;;;;;;;;;;8.50;66.00;;;;;;4947466;28;19989;-73
2021/04/26 08:41:56;;;;;;;;;;;8.20;66.70;;;;;;4964425;28;20017;-69
2021/04/26 08:44:22;;;;;;;;;;;8.00;68.90;;;;;;4963454;28;19969;-74
2021/04/26 08:46:48;;;;;;;;;;;7.80;71.50;;;;;;4952607;28;20009;-76
2021/04/26 08:49:19;;;;;;;;;;;7.70;71.80;;;;;;4938374;28;19965;-78
2021/04/26 08:51:46;;;;;;;;;;;7.50;74.50;;;;;;4959838;28;20332;-78
2021/04/26 08:54:18;;;;;;;;;;;7.30;77.40;;;;;;4938938;28;19953;-68
2021/04/26 08:56:45;;;;;;;;;;;7.90;75.50;;;;;;4940660;28;19923;-73
2021/04/26 08:59:11;;;;;;;;;;;9.00;72.90;;;;;;4948744;28;20037;-70
2021/04/26 09:01:37;;;;;;;;;;;10.00;67.10;;;;;;4940715;28;20013;-71
2021/04/26 09:04:07;;;;;;;;;;;10.50;63.30;;;;;;4946524;28;20017;-72
2021/04/26 09:06:58;;;;;;;;;;;10.60;61.30;;;;;;4949524;28;19950;-69
2021/04/26 09:09:38;;;;;;;;;;;11.10;61.10;;;;;;4963386;28;20006;-69
2021/04/26 09:12:05;;;;;;;;;;;11.80;61.40;;;;;;4956170;28;19966;-67
2021/04/26 09:14:37;;;;;;;;;;;11.90;60.50;;;;;;4952182;28;19933;-65
2021/04/26 09:17:23;;;;;;;;;;;11.70;66.50;;;;;;4952206;28;20016;-66
2021/04/26 09:19:49;;;;;;;;;;;11.40;68.50;;;;;;4948571;28;19923;-66
2021/04/26 09:22:15;;;;;;;;;;;11.20;71.60;;;;;;4952525;28;19945;-65
2021/04/26 09:24:41;;;;;;;;;;;10.80;68.20;;;;;;4952858;28;19965;-63
2021/04/26 09:27:12;;;;;;;;;;;11.20;74.50;;;;;;4964665;28;19926;-69
2021/04/26 09:29:39;;;;;;;;;;;12.10;70.10;;;;;;4958555;28;19926;-66
2021/04/26 09:32:07;;;;;;;;;;;13.50;61.40;;;;;;4951778;28;19962;-66
2021/04/26 09:34:33;;;;;;;;;;;14.80;55.70;;;;;;4943785;28;19926;-66
2021/04/26 09:37:11;;;;;;;;;;;16.10;52.60;;;;;;4966351;28;19930;-68
2021/04/26 09:39:37;;;;;;;;;;;17.30;47.90;;;;;;4951017;28;20013;-68
2021/04/26 09:42:03;;;;;;;;;;;18.20;43.10;;;;;;4952218;28;19926;-69
2021/04/26 09:44:29;;;;;;;;;;;19.00;38.50;;;;;;4951250;28;20024;-67
2021/04/26 09:46:55;;;;;;;;;;;19.40;37.70;;;;;;4951172;28;20434;-70
2021/04/26 09:49:25;;;;;;;;;;;19.60;38.00;;;;;;4945051;28;20449;-71
2021/04/26 09:51:53;;;;;;;;;;;20.20;36.80;;;;;;4951349;28;19926;-68
2021/04/26 09:54:36;;;;;;;;;;;20.60;34.20;;;;;;4939026;29;20024;-67
2021/04/26 09:57:02;;;;;;;;;;;20.80;34.10;;;;;;4963935;28;20011;-66
2021/04/26 09:59:28;;;;;;;;;;;21.30;33.60;;;;;;4951243;28;20005;-68
2021/04/26 10:01:54;;;;;;;;;;;21.70;31.90;;;;;;4950633;28;20021;-66
2021/04/26 10:04:21;;;;;;;;;;;21.80;32.20;;;;;;4951077;28;20025;-67
2021/04/26 10:06:46;;;;;;;;;;;21.40;32.90;;;;;;4950813;28;19945;-66
2021/04/26 10:09:12;;;;;;;;;;;21.60;33.10;;;;;;4965229;28;19941;-67
2021/04/26 10:11:38;;;;;;;;;;;22.00;32.60;;;;;;4973968;28;20021;-68
2021/04/26 10:14:08;;;;;;;;;;;22.40;31.90;;;;;;4950717;28;20025;-68
2021/04/26 10:16:37;;;;;;;;;;;22.30;31.70;;;;;;4965227;28;19961;-67
2021/04/26 10:19:03;;;;;;;;;;;21.80;30.60;;;;;;4951633;28;20454;-68
2021/04/26 10:21:31;;;;;;;;;;;21.10;31.30;;;;;;4951518;28;19985;-68
2021/04/26 10:24:10;;;;;;;;;;;21.10;31.60;;;;;;4964801;28;20382;-69
2021/04/26 10:26:43;;;;;;;;;;;21.50;30.60;;;;;;4963378;28;20322;-69
2021/04/26 10:29:13;;;;;;;;;;;22.20;29.90;;;;;;4945200;28;19977;-69
2021/04/26 10:32:00;;;;;;;;;;;22.20;30.00;;;;;;4951281;28;19926;-70
2021/04/26 10:34:27;;;;;;;;;;;22.40;29.60;;;;;;4950584;28;19970;-67
2021/04/26 10:36:54;;;;;;;;;;;22.70;29.20;;;;;;4950319;28;20043;-67
2021/04/26 10:39:21;;;;;;;;;;;22.70;29.40;;;;;;4949998;28;20008;-68
2021/04/26 10:41:53;;;;;;;;;;;23.00;29.20;;;;;;4950263;28;20024;-67
2021/04/26 10:44:38;;;;;;;;;;;22.10;28.40;;;;;;4949919;28;20422;-69
2021/04/26 10:47:21;;;;;;;;;;;20.90;28.20;;;;;;4949906;28;20013;-70
2021/04/26 10:49:48;;;;;;;;;;;19.60;29.60;;;;;;4948820;28;19926;-75
2021/04/26 10:52:27;;;;;;;;;;;19.30;30.00;;;;;;4963201;28;19981;-71
2021/04/26 10:55:00;;;;;;;;;;;19.10;30.00;;;;;;4937512;28;20005;-72
2021/04/26 10:57:37;;;;;;;;;;;19.00;30.30;;;;;;4943001;28;19987;-74
2021/04/26 11:00:22;;;;;;;;;;;18.80;30.00;;;;;;4942708;28;20392;-72
2021/04/26 11:03:12;;;;;;;;;;;18.30;30.50;;;;;;4959151;28;19927;-75
2021/04/26 11:05:39;;;;;;;;;;;17.70;31.40;;;;;;4946436;28;20020;-73
2021/04/26 11:08:18;;;;;;;;;;;16.70;36.20;;;;;;4948434;28;19923;-74
2021/04/26 11:10:53;;;;;;;;;;;15.60;38.70;;;;;;4948366;28;20084;-76
2021/04/26 11:13:34;;;;;;;;;;;14.40;41.80;;;;;;4948450;28;19929;-74
2021/04/26 11:16:04;;;;;;;;;;;13.50;43.90;;;;;;4937989;28;19927;-72
2021/04/26 11:18:30;;;;;;;;;;;12.80;45.40;;;;;;4942016;28;19930;-71
2021/04/26 11:20:56;;;;;;;;;;;12.50;45.70;;;;;;4942289;28;20013;-74
2021/04/26 11:23:40;;;;;;;;;;;12.30;46.10;;;;;;4936838;28;20351;-73
2021/04/26 11:26:26;;;;;;;;;;;12.20;47.00;;;;;;4949781;28;19926;-71
2021/04/26 11:29:01;;;;;;;;;;;12.30;47.30;;;;;;4939019;28;19941;-70
2021/04/26 11:31:43;;;;;;;;;;;12.40;46.80;;;;;;4945029;28;20302;-70
2021/04/26 11:34:13;;;;;;;;;;;12.40;47.00;;;;;;4953589;28;19927;-68
2021/04/26 11:36:39;;;;;;;;;;;12.30;47.20;;;;;;4952949;28;19972;-68
2021/04/26 11:39:09;;;;;;;;;;;12.40;46.10;;;;;;4942531;28;19926;-68
2021/04/26 11:41:42;;;;;;;;;;;12.40;44.50;;;;;;4965753;28;19927;-70
2021/04/26 11:44:08;;;;;;;;;;;12.40;44.40;;;;;;4968133;28;20310;-69
2021/04/26 11:46:34;;;;;;;;;;;12.40;44.70;;;;;;4968263;28;20009;-70
2021/04/26 11:49:20;;;;;;;;;;;12.50;44.50;;;;;;4953190;28;19929;-68
2021/04/26 11:51:47;;;;;;;;;;;12.50;44.70;;;;;;4956802;28;19977;-69
2021/04/26 11:54:15;;;;;;;;;;;12.40;45.80;;;;;;4965625;28;19926;-70
2021/04/26 11:56:41;;;;;;;;;;;12.40;46.70;;;;;;4963933;28;20009;-69
2021/04/26 11:59:07;;;;;;;;;;;12.50;46.50;;;;;;4944869;28;20040;-71
2021/04/26 12:01:47;;;;;;;;;;;12.50;45.10;;;;;;4953288;28;19926;-69
2021/04/26 12:04:13;;;;;;;;;;;12.40;44.20;;;;;;4944161;28;19922;-70
2021/04/26 12:06:42;;;;;;;;;;;12.50;43.50;;;;;;4952813;28;20763;-70
2021/04/26 12:09:08;;;;;;;;;;;12.60;42.70;;;;;;4967677;28;19958;-69
2021/04/26 12:11:34;;;;;;;;;;;12.60;42.00;;;;;;4948789;28;20314;-69
2021/04/26 12:14:10;;;;;;;;;;;12.60;42.60;;;;;;4966930;28;20021;-70
2021/04/26 12:16:36;;;;;;;;;;;12.60;42.40;;;;;;4950342;28;20028;-70
2021/04/26 12:19:04;;;;;;;;;;;12.80;42.90;;;;;;4964109;28;20409;-69
2021/04/26 12:21:30;;;;;;;;;;;12.90;42.20;;;;;;4950495;28;19926;-64
2021/04/26 12:23:56;;;;;;;;;;;13.00;42.20;;;;;;4953103;28;20045;-66
2021/04/26 12:26:22;;;;;;;;;;;13.20;42.20;;;;;;4951715;28;20028;-68
2021/04/26 12:28:49;;;;;;;;;;;13.40;40.90;;;;;;4952738;28;20046;-70
2021/04/26 12:31:19;;;;;;;;;;;13.70;40.70;;;;;;4967018;28;20013;-65
2021/04/26 12:33:45;;;;;;;;;;;13.80;40.00;;;;;;4952717;28;19965;-66
2021/04/26 12:36:11;;;;;;;;;;;14.00;40.40;;;;;;4951878;28;20013;-65
2021/04/26 12:38:38;;;;;;;;;;;14.10;40.50;;;;;;4953030;28;20025;-66
2021/04/26 12:41:06;;;;;;;;;;;14.30;40.30;;;;;;4963135;28;19927;-70
2021/04/26 12:43:32;;;;;;;;;;;14.50;39.90;;;;;;4964256;28;19923;-70
2021/04/26 12:46:03;;;;;;;;;;;14.60;39.60;;;;;;4963567;28;19927;-70
2021/04/26 12:48:33;;;;;;;;;;;14.40;39.80;;;;;;4966682;28;19946;-70
2021/04/26 12:50:59;;;;;;;;;;;14.00;40.40;;;;;;4950343;28;20092;-72
2021/04/26 12:53:28;;;;;;;;;;;13.90;40.50;;;;;;4966560;28;19922;-72
2021/04/26 12:56:00;;;;;;;;;;;14.00;40.50;;;;;;4949235;28;20405;-72
2021/04/26 12:58:38;;;;;;;;;;;14.20;41.00;;;;;;4951936;28;19930;-67
2021/04/26 13:01:04;;;;;;;;;;;14.40;39.90;;;;;;4952207;28;20004;-67
2021/04/26 13:03:32;;;;;;;;;;;14.40;40.20;;;;;;4951849;28;20380;-69
2021/04/26 13:06:03;;;;;;;;;;;14.20;41.00;;;;;;4966725;28;19945;-65
2021/04/26 13:08:29;;;;;;;;;;;13.90;40.80;;;;;;4966713;28;19927;-72
2021/04/26 13:10:56;;;;;;;;;;;13.50;40.80;;;;;;4961389;28;20127;-74
2021/04/26 13:13:23;;;;;;;;;;;13.40;41.50;;;;;;4954694;28;20343;-71
2021/04/26 13:15:49;;;;;;;;;;;13.30;42.10;;;;;;4951615;28;19926;-70
2021/04/26 13:18:22;;;;;;;;;;;13.10;42.30;;;;;;4934281;28;20458;-68
2021/04/26 13:21:08;;;;;;;;;;;12.40;45.60;;;;;;4944257;28;19926;-69
2021/04/26 13:23:36;;;;;;;;;;;11.60;49.20;;;;;;4951637;28;20033;-68
2021/04/26 13:26:19;;;;;;;;;;;10.90;52.20;;;;;;4951699;28;19929;-67
2021/04/26 13:28:46;;;;;;;;;;;10.40;52.50;;;;;;4942539;28;19961;-68
2021/04/26 13:31:12;;;;;;;;;;;10.00;53.50;;;;;;4964408;28;20354;-68
2021/04/26 13:33:38;;;;;;;;;;;9.60;54.10;;;;;;4951795;28;19974;-72
2021/04/26 13:36:04;;;;;;;;;;;9.40;54.80;;;;;;4939600;28;19957;-70
2021/04/26 13:38:31;;;;;;;;;;;9.50;54.50;;;;;;4943337;28;20021;-66
2021/04/26 13:40:57;;;;;;;;;;;9.60;52.30;;;;;;4948559;28;20017;-69
2021/04/26 13:43:23;;;;;;;;;;;9.80;46.90;;;;;;4936265;29;20017;-72
2021/04/26 13:45:50;;;;;;;;;;;9.80;47.60;;;;;;4966208;28;19926;-65
2021/04/26 13:48:16;;;;;;;;;;;9.80;48.00;;;;;;4951300;29;20386;-65
2021/04/26 13:50:42;;;;;;;;;;;9.80;48.40;;;;;;4951041;29;20005;-67
2021/04/26 13:53:08;;;;;;;;;;;10.10;47.40;;;;;;4965195;28;19977;-66
2021/04/26 13:55:34;;;;;;;;;;;10.60;47.10;;;;;;4951605;29;20462;-67
2021/04/26 13:58:01;;;;;;;;;;;11.00;45.30;;;;;;4965898;28;20012;-66
2021/04/26 14:00:29;;;;;;;;;;;11.50;44.60;;;;;;4950924;29;19930;-71
2021/04/26 14:02:56;;;;;;;;;;;11.80;42.60;;;;;;4965926;28;19953;-71
2021/04/26 14:05:22;;;;;;;;;;;11.90;42.00;;;;;;4965951;28;19927;-75
2021/04/26 14:07:48;;;;;;;;;;;11.80;41.40;;;;;;4950448;29;20076;-71
2021/04/26 14:10:13;;;;;;;;;;;11.70;41.70;;;;;;4965570;28;20033;-71
2021/04/26 14:12:39;;;;;;;;;;;11.60;42.10;;;;;;4951852;28;19933;-71
2021/04/26 14:15:06;;;;;;;;;;;11.40;42.80;;;;;;4948493;28;19926;-71
2021/04/26 14:17:36;;;;;;;;;;;11.10;42.50;;;;;;4964759;28;19926;-71
2021/04/26 14:20:03;;;;;;;;;;;10.80;43.40;;;;;;4950993;28;19977;-71
2021/04/26 14:22:29;;;;;;;;;;;10.80;44.00;;;;;;4950334;28;20013;-71
2021/04/26 14:24:55;;;;;;;;;;;10.90;43.90;;;;;;4950942;28;20005;-71
2021/04/26 14:27:21;;;;;;;;;;;11.30;43.00;;;;;;4965562;28;20068;-72
2021/04/26 14:29:47;;;;;;;;;;;11.80;41.70;;;;;;4965573;28;19927;-70
2021/04/26 14:32:13;;;;;;;;;;;12.10;39.80;;;;;;4950966;28;19969;-69
2021/04/26 14:34:39;;;;;;;;;;;12.50;39.10;;;;;;4950914;28;19961;-71
2021/04/26 14:37:05;;;;;;;;;;;12.60;38.00;;;;;;4965054;28;19926;-80
2021/04/26 14:39:31;;;;;;;;;;;12.80;37.80;;;;;;4965188;28;20002;-78